createdAt,value
2024-05-09T00:00:00.097Z,74.1
2024-05-09T00:01:00.108Z,74.1
2024-05-09T00:02:00.078Z,74.1
2024-05-09T00:03:00.133Z,74.1
2024-05-09T00:04:00.151Z,74.1
2024-05-09T00:05:00.186Z,74.1
2024-05-09T00:06:00.277Z,74.1
2024-05-09T00:07:00.056Z,74.1
2024-05-09T00:08:00.183Z,74.1
2024-05-09T00:09:00.340Z,74.1
2024-05-09T00:10:00.133Z,74.1
2024-05-09T00:11:00.180Z,74.1
2024-05-09T00:12:00.352Z,74.1
2024-05-09T00:13:00.069Z,74.1
2024-05-09T00:14:00.140Z,74.1
2024-05-09T00:15:00.120Z,73.7
2024-05-09T00:16:00.086Z,73.7
2024-05-09T00:17:00.203Z,73.7
2024-05-09T00:18:00.296Z,73.7
2024-05-09T00:19:00.329Z,73.7
2024-05-09T00:20:00.110Z,73.7
2024-05-09T00:21:00.369Z,73.7
2024-05-09T00:22:00.082Z,73.7
2024-05-09T00:23:00.171Z,73.7
2024-05-09T00:24:00.093Z,73.7
2024-05-09T00:25:00.154Z,73.7
2024-05-09T00:26:00.140Z,73.7
2024-05-09T00:27:00.084Z,73.7
2024-05-09T00:28:00.100Z,73.7
2024-05-09T00:29:00.168Z,73.7
2024-05-09T00:30:00.140Z,73.7
2024-05-09T00:31:00.073Z,73.7
2024-05-09T00:32:00.273Z,73.7
2024-05-09T00:33:00.196Z,73.7
2024-05-09T00:34:00.288Z,73.7
2024-05-09T00:35:00.216Z,73.7
2024-05-09T00:36:00.130Z,73.7
2024-05-09T00:37:00.091Z,73.7
2024-05-09T00:38:00.228Z,73.7
2024-05-09T00:39:00.092Z,73.7
2024-05-09T00:40:00.166Z,73.7
2024-05-09T00:41:00.161Z,73.7
2024-05-09T00:42:00.092Z,73.7
2024-05-09T00:43:00.092Z,73.7
2024-05-09T00:44:00.190Z,73.7
2024-05-09T00:45:00.172Z,73.7
2024-05-09T00:46:00.104Z,73.7
2024-05-09T00:47:00.138Z,73.7
2024-05-09T00:48:00.629Z,73.7
2024-05-09T00:49:00.297Z,73.7
2024-05-09T00:50:00.244Z,73.7
2024-05-09T00:51:00.126Z,73.7
2024-05-09T00:52:00.106Z,73.7
2024-05-09T00:53:00.153Z,73.7
2024-05-09T00:54:00.106Z,73.7
2024-05-09T00:55:00.148Z,73.7
2024-05-09T00:56:00.190Z,73.7
2024-05-09T00:57:00.156Z,73.7
2024-05-09T00:58:00.167Z,73.7
2024-05-09T00:59:00.209Z,73.7
2024-05-09T01:00:00.158Z,73.7
2024-05-09T01:01:00.204Z,74.7
2024-05-09T01:02:00.224Z,74.7
2024-05-09T01:03:00.351Z,74.7
2024-05-09T01:04:00.194Z,74.7
2024-05-09T01:05:00.397Z,74.7
2024-05-09T01:06:00.163Z,74.7
2024-05-09T01:07:00.130Z,74.7
2024-05-09T01:08:00.187Z,74.7
2024-05-09T01:09:00.162Z,74.7
2024-05-09T01:10:00.184Z,74.7
2024-05-09T01:11:00.240Z,74.9
2024-05-09T01:12:00.230Z,74.9
2024-05-09T01:13:00.202Z,74.9
2024-05-09T01:14:00.179Z,74.9
2024-05-09T01:15:00.164Z,75
2024-05-09T01:16:00.151Z,75
2024-05-09T01:17:00.170Z,75
2024-05-09T01:18:00.416Z,75
2024-05-09T01:19:00.242Z,75
2024-05-09T01:20:00.324Z,75
2024-05-09T01:21:00.227Z,75
2024-05-09T01:22:00.185Z,75
2024-05-09T01:23:00.172Z,75
2024-05-09T01:24:00.137Z,75
2024-05-09T01:25:00.173Z,75
2024-05-09T01:26:00.215Z,75
2024-05-09T01:27:00.191Z,75
2024-05-09T01:28:00.137Z,75
2024-05-09T01:29:00.182Z,75
2024-05-09T01:30:00.197Z,74.3
2024-05-09T01:31:00.166Z,74.3
2024-05-09T01:32:00.279Z,74.3
2024-05-09T01:33:00.315Z,74.3
2024-05-09T01:34:00.313Z,74.3
2024-05-09T01:35:00.274Z,74.3
2024-05-09T01:36:00.155Z,74.3
2024-05-09T01:37:00.167Z,74.3
2024-05-09T01:38:00.242Z,74.3
2024-05-09T01:39:00.182Z,74.3
2024-05-09T01:40:00.189Z,74
2024-05-09T01:41:00.211Z,74
2024-05-09T01:42:00.157Z,74
2024-05-09T01:43:00.152Z,74
2024-05-09T01:44:00.301Z,74
2024-05-09T01:45:00.197Z,74
2024-05-09T01:46:00.161Z,74
2024-05-09T01:47:00.209Z,74
2024-05-09T01:48:00.658Z,74
2024-05-09T01:49:00.277Z,74
2024-05-09T01:50:00.272Z,74
2024-05-09T01:51:00.260Z,74
2024-05-09T01:52:00.178Z,74
2024-05-09T01:53:00.215Z,74
2024-05-09T01:54:00.178Z,74
2024-05-09T01:55:03.432Z,74
2024-05-09T01:56:00.257Z,73.1
2024-05-09T01:57:00.164Z,73.1
2024-05-09T01:58:00.192Z,73.1
2024-05-09T01:59:00.241Z,73.1
2024-05-09T02:00:00.279Z,73.1
2024-05-09T02:01:00.220Z,73.1
2024-05-09T02:02:00.365Z,73.1
2024-05-09T02:03:00.456Z,73.1
2024-05-09T02:04:00.455Z,73.1
2024-05-09T02:05:00.477Z,73.1
2024-05-09T02:06:00.207Z,73.1
2024-05-09T02:07:00.228Z,73.1
2024-05-09T02:08:00.296Z,73.1
2024-05-09T02:09:00.204Z,73.1
2024-05-09T02:10:00.246Z,71.8
2024-05-09T02:11:00.399Z,71.8
2024-05-09T02:12:00.408Z,71.8
2024-05-09T02:13:00.213Z,71.8
2024-05-09T02:14:00.390Z,71.8
2024-05-09T02:15:00.222Z,71.8
2024-05-09T02:16:00.236Z,71.8
2024-05-09T02:17:00.225Z,71.8
2024-05-09T02:18:00.392Z,71.8
2024-05-09T02:19:00.317Z,71.8
2024-05-09T02:20:00.301Z,71.8
2024-05-09T02:21:00.352Z,71.8
2024-05-09T02:22:00.201Z,71.8
2024-05-09T02:23:00.219Z,71.8
2024-05-09T02:24:00.259Z,71.8
2024-05-09T02:25:00.214Z,71.8
2024-05-09T02:26:00.308Z,71.8
2024-05-09T02:27:00.207Z,71.8
2024-05-09T02:28:00.236Z,71.8
2024-05-09T02:29:00.377Z,71.8
2024-05-09T02:30:00.211Z,71.8
2024-05-09T02:31:00.230Z,71.8
2024-05-09T02:32:00.363Z,71.8
2024-05-09T02:33:00.438Z,71.8
2024-05-09T02:34:00.347Z,71.8
2024-05-09T02:35:00.354Z,71.8
2024-05-09T02:36:00.265Z,71.8
2024-05-09T02:37:00.221Z,71.8
2024-05-09T02:38:00.413Z,71.8
2024-05-09T02:39:00.200Z,71.8
2024-05-09T02:40:00.225Z,71.8
2024-05-09T02:41:00.272Z,71.8
2024-05-09T02:42:00.254Z,71.8
2024-05-09T02:43:00.220Z,71.8
2024-05-09T02:44:00.280Z,71.8
2024-05-09T02:45:00.279Z,71.8
2024-05-09T02:46:00.235Z,71.8
2024-05-09T02:47:00.241Z,71.8
2024-05-09T02:48:00.974Z,71.8
2024-05-09T02:49:00.293Z,71.8
2024-05-09T02:50:00.354Z,71.8
2024-05-09T02:51:00.301Z,71.8
2024-05-09T02:52:00.219Z,71.8
2024-05-09T02:53:00.279Z,71.8
2024-05-09T02:54:00.213Z,71.8
2024-05-09T02:55:00.208Z,71.8
2024-05-09T02:56:00.267Z,71.8
2024-05-09T02:57:00.278Z,71.8
2024-05-09T02:58:00.246Z,71.8
2024-05-09T02:59:00.263Z,71.8
2024-05-09T03:00:00.240Z,71.8
2024-05-09T03:01:00.270Z,71.8
2024-05-09T03:02:00.359Z,71.8
2024-05-09T03:03:00.472Z,70
2024-05-09T03:04:00.394Z,69.8
2024-05-09T03:05:00.263Z,69.8
2024-05-09T03:06:00.264Z,69.8
2024-05-09T03:07:00.247Z,69.8
2024-05-09T03:08:00.307Z,69.8
2024-05-09T03:09:00.242Z,69.8
2024-05-09T03:10:00.301Z,69.8
2024-05-09T03:11:00.268Z,69.8
2024-05-09T03:12:00.308Z,69.8
2024-05-09T03:13:00.241Z,69.8
2024-05-09T03:14:00.297Z,69.8
2024-05-09T03:15:00.298Z,69.8
2024-05-09T03:16:00.269Z,69.8
2024-05-09T03:17:00.256Z,69.8
2024-05-09T03:18:00.609Z,69.8
2024-05-09T03:19:00.327Z,69.8
2024-05-09T03:20:00.359Z,69.8
2024-05-09T03:21:00.267Z,69.8
2024-05-09T03:22:00.234Z,69.8
2024-05-09T03:23:00.291Z,69.8
2024-05-09T03:24:00.299Z,69.8
2024-05-09T03:25:00.301Z,69.8
2024-05-09T03:26:00.306Z,68.8
2024-05-09T03:27:00.275Z,68.8
2024-05-09T03:28:00.299Z,68.8
2024-05-09T03:29:00.294Z,68.8
2024-05-09T03:30:00.342Z,68.8
2024-05-09T03:31:00.257Z,68.8
2024-05-09T03:32:00.347Z,68.8
2024-05-09T03:33:00.411Z,68.8
2024-05-09T03:34:00.430Z,68.8
2024-05-09T03:35:00.344Z,68.8
2024-05-09T03:36:00.274Z,68.8
2024-05-09T03:37:00.271Z,68.8
2024-05-09T03:38:00.311Z,68.8
2024-05-09T03:39:00.250Z,68.8
2024-05-09T03:40:00.294Z,68.8
2024-05-09T03:41:00.317Z,68.8
2024-05-09T03:42:00.278Z,68.8
2024-05-09T03:43:00.275Z,68.8
2024-05-09T03:44:00.346Z,68.8
2024-05-09T03:45:00.265Z,68.8
2024-05-09T03:46:00.332Z,68.8
2024-05-09T03:47:00.300Z,68.8
2024-05-09T03:48:00.466Z,68.8
2024-05-09T03:49:00.328Z,68.8
2024-05-09T03:50:00.344Z,68.8
2024-05-09T03:51:00.332Z,68.8
2024-05-09T03:52:00.277Z,68.8
2024-05-09T03:53:00.511Z,68.8
2024-05-09T03:54:00.277Z,68.8
2024-05-09T03:55:00.330Z,68.8
2024-05-09T03:56:00.441Z,68.8
2024-05-09T03:57:00.297Z,68.3
2024-05-09T03:58:00.317Z,68.3
2024-05-09T03:59:00.298Z,68.3
2024-05-09T04:00:00.354Z,68.3
2024-05-09T04:01:00.322Z,68.3
2024-05-09T04:02:00.452Z,68.3
2024-05-09T04:03:00.476Z,68.3
2024-05-09T04:04:00.319Z,68.2
2024-05-09T04:05:00.364Z,68.2
2024-05-09T04:06:00.287Z,68.2
2024-05-09T04:07:00.405Z,68.2
2024-05-09T04:08:00.340Z,68.2
2024-05-09T04:09:00.272Z,68.2
2024-05-09T04:10:00.359Z,68.2
2024-05-09T04:11:00.324Z,68.2
2024-05-09T04:12:00.436Z,68.2
2024-05-09T04:13:00.293Z,68.2
2024-05-09T04:14:01.372Z,68.2
2024-05-09T04:15:00.336Z,68.2
2024-05-09T04:16:00.351Z,68.2
2024-05-09T04:17:00.321Z,68.2
2024-05-09T04:18:01.139Z,68.2
2024-05-09T04:19:00.426Z,68.2
2024-05-09T04:20:00.451Z,68.2
2024-05-09T04:21:00.346Z,68.2
2024-05-09T04:22:00.387Z,68.2
2024-05-09T04:23:00.354Z,68.2
2024-05-09T04:24:00.307Z,68.2
2024-05-09T04:25:00.313Z,68.2
2024-05-09T04:26:00.482Z,68.2
2024-05-09T04:27:00.343Z,68.2
2024-05-09T04:28:00.365Z,68.2
2024-05-09T04:29:00.344Z,68.2
2024-05-09T04:30:00.430Z,68.2
2024-05-09T04:31:00.321Z,68.2
2024-05-09T04:32:00.521Z,68.2
2024-05-09T04:33:00.474Z,68.2
2024-05-09T04:34:00.478Z,68.2
2024-05-09T04:35:00.354Z,68.2
2024-05-09T04:36:00.321Z,68.2
2024-05-09T04:37:00.326Z,68.2
2024-05-09T04:38:00.384Z,68.2
2024-05-09T04:39:00.304Z,68.2
2024-05-09T04:40:00.336Z,68.2
2024-05-09T04:41:00.351Z,68.2
2024-05-09T04:42:00.472Z,68.2
2024-05-09T04:43:00.360Z,68.2
2024-05-09T04:44:00.344Z,68.2
2024-05-09T04:45:00.313Z,68.2
2024-05-09T04:46:00.322Z,68.2
2024-05-09T04:47:00.364Z,68.2
2024-05-09T04:48:01.030Z,68.2
2024-05-09T04:49:00.493Z,68.2
2024-05-09T04:50:00.337Z,68.2
2024-05-09T04:51:00.353Z,68.2
2024-05-09T04:52:00.307Z,68.2
2024-05-09T04:53:00.353Z,68.2
2024-05-09T04:54:00.317Z,68.2
2024-05-09T04:55:00.372Z,68.2
2024-05-09T04:56:00.360Z,68.2
2024-05-09T04:57:00.307Z,68.2
2024-05-09T04:58:00.339Z,68.2
2024-05-09T04:59:00.338Z,68.2
2024-05-09T05:00:00.319Z,68.2
2024-05-09T05:01:00.365Z,68.2
2024-05-09T05:02:00.404Z,68.2
2024-05-09T05:03:00.489Z,68.2
2024-05-09T05:04:00.405Z,68.2
2024-05-09T05:05:00.499Z,68.2
2024-05-09T05:06:00.401Z,68.2
2024-05-09T05:07:02.788Z,68.2
2024-05-09T05:08:00.365Z,68.2
2024-05-09T05:09:00.325Z,68.2
2024-05-09T05:10:00.312Z,68.2
2024-05-09T05:11:00.472Z,68.2
2024-05-09T05:12:00.406Z,68.2
2024-05-09T05:13:00.349Z,68.2
2024-05-09T05:14:00.364Z,68.2
2024-05-09T05:15:00.322Z,68.2
2024-05-09T05:16:00.291Z,68.2
2024-05-09T05:17:00.344Z,68.2
2024-05-09T05:18:00.529Z,68.2
2024-05-09T05:19:00.492Z,68.2
2024-05-09T05:20:00.593Z,68.2
2024-05-09T05:21:00.367Z,68.2
2024-05-09T05:22:00.310Z,68.2
2024-05-09T05:23:00.485Z,68.2
2024-05-09T05:24:00.319Z,68.2
2024-05-09T05:25:00.330Z,68.2
2024-05-09T05:26:00.355Z,68.2
2024-05-09T05:27:00.329Z,68.2
2024-05-09T05:28:00.316Z,68.2
2024-05-09T05:29:00.385Z,68.2
2024-05-09T05:30:00.355Z,68.2
2024-05-09T05:31:00.379Z,68.2
2024-05-09T05:32:00.436Z,68.2
2024-05-09T05:33:00.605Z,64.1
2024-05-09T05:34:00.358Z,64.1
2024-05-09T05:35:00.376Z,64.1
2024-05-09T05:36:00.319Z,64.1
2024-05-09T05:37:00.354Z,64.1
2024-05-09T05:38:00.349Z,64.1
2024-05-09T05:39:00.330Z,64.1
2024-05-09T05:40:00.372Z,64.1
2024-05-09T05:41:00.413Z,64.1
2024-05-09T05:42:00.342Z,64.1
2024-05-09T05:43:00.387Z,63.4
2024-05-09T05:44:00.367Z,63.4
2024-05-09T05:45:00.313Z,63.4
2024-05-09T05:46:00.332Z,63.4
2024-05-09T05:47:00.375Z,63.4
2024-05-09T05:48:00.655Z,63.4
2024-05-09T05:49:00.492Z,63.4
2024-05-09T05:50:00.504Z,63.4
2024-05-09T05:51:03.647Z,63.4
2024-05-09T05:52:00.333Z,63.4
2024-05-09T05:53:00.491Z,63.4
2024-05-09T05:54:00.319Z,63.4
2024-05-09T05:55:00.402Z,63.4
2024-05-09T05:56:00.484Z,63.4
2024-05-09T05:57:00.342Z,63.4
2024-05-09T05:58:00.330Z,63.4
2024-05-09T05:59:00.326Z,63.4
2024-05-09T06:00:00.304Z,63.4
2024-05-09T06:01:00.460Z,63.7
2024-05-09T06:02:00.381Z,63.7
2024-05-09T06:03:00.440Z,63.7
2024-05-09T06:04:00.620Z,63.7
2024-05-09T06:05:00.571Z,63.7
2024-05-09T06:06:00.404Z,63.7
2024-05-09T06:07:00.344Z,63.7
2024-05-09T06:08:00.623Z,63.7
2024-05-09T06:09:00.346Z,63.7
2024-05-09T06:10:00.330Z,63.7
2024-05-09T06:11:00.380Z,63.7
2024-05-09T06:12:00.458Z,63.7
2024-05-09T06:13:00.371Z,63.7
2024-05-09T06:14:00.358Z,63.7
2024-05-09T06:15:00.325Z,63.7
2024-05-09T06:16:00.295Z,63.7
2024-05-09T06:17:00.380Z,63.7
2024-05-09T06:18:00.650Z,63.7
2024-05-09T06:19:00.439Z,63.7
2024-05-09T06:20:00.410Z,63.7
2024-05-09T06:21:00.392Z,63.7
2024-05-09T06:22:00.342Z,63.7
2024-05-09T06:23:00.402Z,63.7
2024-05-09T06:24:00.835Z,63.7
2024-05-09T06:25:00.318Z,63.7
2024-05-09T06:26:00.401Z,63.7
2024-05-09T06:27:00.328Z,63.7
2024-05-09T06:28:00.470Z,63.7
2024-05-09T06:29:00.353Z,63.7
2024-05-09T06:30:00.324Z,63.7
2024-05-09T06:31:00.325Z,63.7
2024-05-09T06:32:00.594Z,63.7
2024-05-09T06:33:00.454Z,63.7
2024-05-09T06:34:00.457Z,63.7
2024-05-09T06:35:00.395Z,63.7
2024-05-09T06:36:00.318Z,63.7
2024-05-09T06:37:00.361Z,63.7
2024-05-09T06:38:00.490Z,63.7
2024-05-09T06:39:00.347Z,63.7
2024-05-09T06:40:00.315Z,63.7
2024-05-09T06:41:00.353Z,63.7
2024-05-09T06:42:00.324Z,63.7
2024-05-09T06:43:00.360Z,61.9
2024-05-09T06:44:00.393Z,61.9
2024-05-09T06:45:00.364Z,61.9
2024-05-09T06:46:00.312Z,61.9
2024-05-09T06:47:00.499Z,61.9
2024-05-09T06:48:00.754Z,61.9
2024-05-09T06:49:00.514Z,61.9
2024-05-09T06:50:00.461Z,61.9
2024-05-09T06:51:00.357Z,61.9
2024-05-09T06:52:00.332Z,61.9
2024-05-09T06:53:00.557Z,61.9
2024-05-09T06:54:00.319Z,61.9
2024-05-09T06:55:00.355Z,61.9
2024-05-09T06:56:00.465Z,61.9
2024-05-09T06:57:00.330Z,61.9
2024-05-09T06:58:00.343Z,60.6
2024-05-09T06:59:00.439Z,60.6
2024-05-09T07:00:00.327Z,60.6
2024-05-09T07:01:00.385Z,60.6
2024-05-09T07:02:00.361Z,60.6
2024-05-09T07:03:03.507Z,60.6
2024-05-09T07:04:00.400Z,60.6
2024-05-09T07:05:00.587Z,60.6
2024-05-09T07:06:00.413Z,60.6
2024-05-09T07:07:00.366Z,60.6
2024-05-09T07:08:00.362Z,60.6
2024-05-09T07:09:00.364Z,60.6
2024-05-09T07:10:00.323Z,60.6
2024-05-09T07:11:00.430Z,60.6
2024-05-09T07:12:00.402Z,60.6
2024-05-09T07:13:00.357Z,60.6
2024-05-09T07:14:00.367Z,60.6
2024-05-09T07:15:00.324Z,60.6
2024-05-09T07:16:00.381Z,60.6
2024-05-09T07:17:00.456Z,60.2
2024-05-09T07:18:00.508Z,60.2
2024-05-09T07:19:00.556Z,60.2
2024-05-09T07:20:00.643Z,60.2
2024-05-09T07:21:00.390Z,60.2
2024-05-09T07:22:00.386Z,60.2
2024-05-09T07:23:00.417Z,60.2
2024-05-09T07:24:00.346Z,60.2
2024-05-09T07:25:00.416Z,60.2
2024-05-09T07:26:00.480Z,60.2
2024-05-09T07:27:00.359Z,60.2
2024-05-09T07:28:00.369Z,60.2
2024-05-09T07:29:00.360Z,60.2
2024-05-09T07:30:00.368Z,60.2
2024-05-09T07:31:00.386Z,60.2
2024-05-09T07:32:00.486Z,60.2
2024-05-09T07:33:00.749Z,60.2
2024-05-09T07:34:00.693Z,60.2
2024-05-09T07:35:00.418Z,60.2
2024-05-09T07:36:00.391Z,59.1
2024-05-09T07:37:00.403Z,59.1
2024-05-09T07:38:00.420Z,58.2
2024-05-09T07:39:00.363Z,58.2
2024-05-09T07:40:00.364Z,58.2
2024-05-09T07:41:00.347Z,58.2
2024-05-09T07:42:00.356Z,58.2
2024-05-09T07:43:00.381Z,58.2
2024-05-09T07:44:00.378Z,58.2
2024-05-09T07:45:20.529Z,58.2
2024-05-09T07:50:35.831Z,58.9
2024-05-09T07:51:47.489Z,58.9
2024-05-09T07:53:00.957Z,58.9
2024-05-09T07:53:24.980Z,58.9
2024-05-09T07:53:36.003Z,58.9
2024-05-09T07:54:01.498Z,58.9
2024-05-09T07:55:00.782Z,58.9
2024-05-09T07:56:00.523Z,58.9
2024-05-09T07:57:00.525Z,58.9
2024-05-09T07:58:00.419Z,58.9
2024-05-09T07:59:00.390Z,58.9
2024-05-09T08:00:00.418Z,58.9
2024-05-09T08:01:00.473Z,58.9
2024-05-09T08:02:00.654Z,58.9
2024-05-09T08:03:00.417Z,58.9
2024-05-09T08:04:00.566Z,58.9
2024-05-09T08:05:00.476Z,58.9
2024-05-09T08:06:00.376Z,58.9
2024-05-09T08:07:00.423Z,58.9
2024-05-09T08:08:00.371Z,58.9
2024-05-09T08:09:05.294Z,58.9
2024-05-09T08:10:00.440Z,58.9
2024-05-09T08:11:00.380Z,58.9
2024-05-09T08:12:00.379Z,58.9
2024-05-09T08:13:00.404Z,58.9
2024-05-09T08:14:00.397Z,58.9
2024-05-09T08:15:00.377Z,58.9
2024-05-09T08:16:00.838Z,58.9
2024-05-09T08:17:00.497Z,58.9
2024-05-09T08:18:00.811Z,58.9
2024-05-09T08:19:00.669Z,58.9
2024-05-09T08:20:01.040Z,58.6
2024-05-09T08:21:00.391Z,58.6
2024-05-09T08:22:00.402Z,58.6
2024-05-09T08:23:00.411Z,58.6
2024-05-09T08:24:00.397Z,58.6
2024-05-09T08:25:00.408Z,58.6
2024-05-09T08:26:00.369Z,58.6
2024-05-09T08:27:00.389Z,58.6
2024-05-09T08:28:00.537Z,58.6
2024-05-09T08:29:00.411Z,58.6
2024-05-09T08:30:00.419Z,57.6
2024-05-09T08:31:02.391Z,57.6
2024-05-09T08:32:00.486Z,57.6
2024-05-09T08:33:00.486Z,57.6
2024-05-09T08:34:00.697Z,57.6
2024-05-09T08:35:00.460Z,57.6
2024-05-09T08:36:00.367Z,57.6
2024-05-09T08:37:06.126Z,57.6
2024-05-09T08:38:00.432Z,57.6
2024-05-09T08:39:00.379Z,57.6
2024-05-09T08:40:00.588Z,57.6
2024-05-09T08:41:00.359Z,57.6
2024-05-09T08:42:00.378Z,57.6
2024-05-09T08:43:00.409Z,57.6
2024-05-09T08:44:00.375Z,57.6
2024-05-09T08:45:00.390Z,57.5
2024-05-09T08:46:00.429Z,57.5
2024-05-09T08:47:00.377Z,57.5
2024-05-09T08:48:00.622Z,57.5
2024-05-09T08:49:00.658Z,57.5
2024-05-09T08:50:00.461Z,57.5
2024-05-09T08:51:00.409Z,57.5
2024-05-09T08:52:00.470Z,57.5
2024-05-09T08:53:00.412Z,57.5
2024-05-09T08:54:00.398Z,57.5
2024-05-09T08:55:00.442Z,57.5
2024-05-09T08:56:00.402Z,57.5
2024-05-09T08:57:00.450Z,57.5
2024-05-09T08:58:00.448Z,57.5
2024-05-09T08:59:00.382Z,57.5
2024-05-09T09:00:00.495Z,57.5
2024-05-09T09:01:00.562Z,57.5
2024-05-09T09:02:00.496Z,57.5
2024-05-09T09:03:00.449Z,57.5
2024-05-09T09:04:00.632Z,57.5
2024-05-09T09:05:00.607Z,57.5
2024-05-09T09:06:00.428Z,57.5
2024-05-09T09:07:02.367Z,57.5
2024-05-09T09:08:00.388Z,57.5
2024-05-09T09:09:00.376Z,57.5
2024-05-09T09:10:00.497Z,57.5
2024-05-09T09:11:00.390Z,57.5
2024-05-09T09:12:00.463Z,57.5
2024-05-09T09:13:00.455Z,57.5
2024-05-09T09:14:00.397Z,57.5
2024-05-09T09:15:00.444Z,57.5
2024-05-09T09:16:00.689Z,57.5
2024-05-09T09:17:00.385Z,57.5
2024-05-09T09:18:01.113Z,54.4
2024-05-09T09:19:00.569Z,54.4
2024-05-09T09:20:00.624Z,54.4
2024-05-09T09:21:00.399Z,54.4
2024-05-09T09:22:00.422Z,54.4
2024-05-09T09:23:00.373Z,54.4
2024-05-09T09:24:00.403Z,54.4
2024-05-09T09:25:00.443Z,54.4
2024-05-09T09:26:00.436Z,54.4
2024-05-09T09:27:00.424Z,54.4
2024-05-09T09:28:00.539Z,54.4
2024-05-09T09:29:00.414Z,54.4
2024-05-09T09:30:00.383Z,53.9
2024-05-09T09:31:00.474Z,53.9
2024-05-09T09:32:00.412Z,53.9
2024-05-09T09:33:00.569Z,53.9
2024-05-09T09:34:00.583Z,53.9
2024-05-09T09:35:00.598Z,53.9
2024-05-09T09:36:00.380Z,53.9
2024-05-09T09:37:00.409Z,53.9
2024-05-09T09:38:00.423Z,53.9
2024-05-09T09:39:00.385Z,53.9
2024-05-09T09:40:00.472Z,53.9
2024-05-09T09:41:00.447Z,53.9
2024-05-09T09:42:00.385Z,52.5
2024-05-09T09:43:00.452Z,52.5
2024-05-09T09:44:00.387Z,52.5
2024-05-09T09:45:04.978Z,52.5
2024-05-09T09:46:00.542Z,52.5
2024-05-09T09:47:00.392Z,52.5
2024-05-09T09:48:00.482Z,52.5
2024-05-09T09:49:00.590Z,52.5
2024-05-09T09:50:00.414Z,52.5
2024-05-09T09:51:00.375Z,52.5
2024-05-09T09:52:00.490Z,52.5
2024-05-09T09:53:00.373Z,52.5
2024-05-09T09:54:00.410Z,52.5
2024-05-09T09:55:00.441Z,52.5
2024-05-09T09:56:00.429Z,52.5
2024-05-09T09:57:00.407Z,54.1
2024-05-09T09:58:00.488Z,54.1
2024-05-09T09:59:00.386Z,54.1
2024-05-09T10:00:00.440Z,54.1
2024-05-09T10:01:00.502Z,54.1
2024-05-09T10:02:00.650Z,54.1
2024-05-09T10:03:00.731Z,54.1
2024-05-09T10:04:00.555Z,54.1
2024-05-09T10:05:00.494Z,54.1
2024-05-09T10:06:00.536Z,54.1
2024-05-09T10:07:00.429Z,54.1
2024-05-09T10:08:00.426Z,54.1
2024-05-09T10:09:00.416Z,54.1
2024-05-09T10:10:00.570Z,54.1
2024-05-09T10:11:00.450Z,54.1
2024-05-09T10:12:00.907Z,54.1
2024-05-09T10:13:00.957Z,53.4
2024-05-09T10:14:00.403Z,53.4
2024-05-09T10:15:00.431Z,53.4
2024-05-09T10:16:00.529Z,53.4
2024-05-09T10:17:00.423Z,53.4
2024-05-09T10:18:00.458Z,53.4
2024-05-09T10:19:00.527Z,53.4
2024-05-09T10:20:00.453Z,53.4
2024-05-09T10:21:00.403Z,53.4
2024-05-09T10:22:00.473Z,53.4
2024-05-09T10:23:00.393Z,53.4
2024-05-09T10:24:00.437Z,53.4
2024-05-09T10:25:02.781Z,53.4
2024-05-09T10:26:00.482Z,53.4
2024-05-09T10:27:00.398Z,52.3
2024-05-09T10:28:00.504Z,52.3
2024-05-09T10:29:00.424Z,52.3
2024-05-09T10:30:00.420Z,52.3
2024-05-09T10:31:00.548Z,52.3
2024-05-09T10:32:00.427Z,52.3
2024-05-09T10:33:00.493Z,52.3
2024-05-09T10:34:00.837Z,52.3
2024-05-09T10:35:00.653Z,52.3
2024-05-09T10:36:00.415Z,52.3
2024-05-09T10:37:02.662Z,52.3
2024-05-09T10:38:00.442Z,52.3
2024-05-09T10:39:00.422Z,52.3
2024-05-09T10:40:00.580Z,52.3
2024-05-09T10:41:00.405Z,52.3
2024-05-09T10:42:00.428Z,52.3
2024-05-09T10:43:03.495Z,52.3
2024-05-09T10:44:00.462Z,52.3
2024-05-09T10:45:00.430Z,52.3
2024-05-09T10:46:00.460Z,52.3
2024-05-09T10:47:00.466Z,52.3
2024-05-09T10:48:00.690Z,52.3
2024-05-09T10:49:04.246Z,52.3
2024-05-09T10:50:00.577Z,52.3
2024-05-09T10:51:00.435Z,52.3
2024-05-09T10:52:00.487Z,52.3
2024-05-09T10:53:00.449Z,52.3
2024-05-09T10:54:00.425Z,52.3
2024-05-09T10:55:01.727Z,52.3
2024-05-09T10:56:00.459Z,52.3
2024-05-09T10:57:00.434Z,52.3
2024-05-09T10:58:00.582Z,52.3
2024-05-09T10:59:00.409Z,52.3
2024-05-09T11:00:00.500Z,52.3
2024-05-09T11:02:00.549Z,52.3
2024-05-09T11:03:00.567Z,52.3
2024-05-09T11:04:00.692Z,52.3
2024-05-09T11:05:00.588Z,52
2024-05-09T11:06:00.473Z,52
2024-05-09T11:07:01.562Z,52
2024-05-09T11:08:00.433Z,52
2024-05-09T11:09:00.414Z,52
2024-05-09T11:10:00.501Z,52
2024-05-09T11:11:00.592Z,52
2024-05-09T11:12:00.491Z,52
2024-05-09T11:13:00.576Z,52
2024-05-09T11:14:00.450Z,52
2024-05-09T11:15:00.457Z,52
2024-05-09T11:16:00.578Z,52
2024-05-09T11:17:00.436Z,51.1
2024-05-09T11:18:00.589Z,51.1
2024-05-09T11:19:00.778Z,51.1
2024-05-09T11:20:00.712Z,51.1
2024-05-09T11:21:00.439Z,51.1
2024-05-09T11:22:00.468Z,51.1
2024-05-09T11:23:00.419Z,51.1
2024-05-09T11:24:00.434Z,51.1
2024-05-09T11:25:00.475Z,51.1
2024-05-09T11:26:00.466Z,51.1
2024-05-09T11:27:00.444Z,51.1
2024-05-09T11:28:00.541Z,51.1
2024-05-09T11:29:00.436Z,51.1
2024-05-09T11:30:00.460Z,51.1
2024-05-09T11:31:00.502Z,52.5
2024-05-09T11:32:00.499Z,52.5
2024-05-09T11:33:00.642Z,52.5
2024-05-09T11:34:00.490Z,52.5
2024-05-09T11:35:03.484Z,52.5
2024-05-09T11:36:00.434Z,52.5
2024-05-09T11:37:00.532Z,52.5
2024-05-09T11:38:00.410Z,52.5
2024-05-09T11:39:01.479Z,52.5
2024-05-09T11:40:01.541Z,52.5
2024-05-09T11:41:00.419Z,52.5
2024-05-09T11:42:00.489Z,52.5
2024-05-09T11:43:00.591Z,52.5
2024-05-09T11:44:00.477Z,52.5
2024-05-09T11:45:00.483Z,52.5
2024-05-09T11:46:00.534Z,52.5
2024-05-09T11:47:00.439Z,52.5
2024-05-09T11:48:00.566Z,52.5
2024-05-09T11:49:00.766Z,52.5
2024-05-09T11:50:00.664Z,52.5
2024-05-09T11:51:00.431Z,52.5
2024-05-09T11:52:00.706Z,52.5
2024-05-09T11:53:00.447Z,52.5
2024-05-09T11:54:00.508Z,52.5
2024-05-09T11:55:00.517Z,52.5
2024-05-09T11:56:00.414Z,52.5
2024-05-09T11:57:00.452Z,52.5
2024-05-09T11:58:00.554Z,52.5
2024-05-09T11:59:00.465Z,52.5
2024-05-09T12:00:00.447Z,52.5
2024-05-09T12:01:00.537Z,52.5
2024-05-09T12:02:00.647Z,52.5
2024-05-09T12:03:00.464Z,52.5
2024-05-09T12:04:00.963Z,52.5
2024-05-09T12:05:00.579Z,52.5
2024-05-09T12:06:00.752Z,52.1
2024-05-09T12:07:00.497Z,52.1
2024-05-09T12:08:00.454Z,52.1
2024-05-09T12:09:00.451Z,51.1
2024-05-09T12:10:00.670Z,51.1
2024-05-09T12:12:23.020Z,51.1
2024-05-09T12:13:23.239Z,51.1
2024-05-09T12:14:22.917Z,51.1
2024-05-09T12:15:22.902Z,51.1
2024-05-09T12:16:23.143Z,51.1
2024-05-09T12:17:22.983Z,51.1
2024-05-09T12:18:22.906Z,51.1
2024-05-09T12:19:23.093Z,52
2024-05-09T12:20:28.870Z,52
2024-05-09T12:21:22.902Z,52
2024-05-09T12:22:22.941Z,52
2024-05-09T12:23:22.901Z,53
2024-05-09T12:24:22.917Z,53
2024-05-09T12:25:22.924Z,53
2024-05-09T12:26:22.933Z,53
2024-05-09T12:27:22.918Z,53
2024-05-09T12:28:23.057Z,53
2024-05-09T12:29:22.900Z,53
2024-05-09T12:30:32.490Z,53
2024-05-09T12:31:22.973Z,53
2024-05-09T12:32:22.966Z,53
2024-05-09T12:33:22.960Z,53
2024-05-09T12:34:22.978Z,53
2024-05-09T12:35:22.915Z,53
2024-05-09T12:36:22.952Z,53
2024-05-09T12:37:22.956Z,53
2024-05-09T12:38:22.930Z,53
2024-05-09T12:39:22.928Z,53
2024-05-09T12:40:31.514Z,53
2024-05-09T12:41:22.941Z,53
2024-05-09T12:42:27.396Z,53
2024-05-09T12:43:23.102Z,53
2024-05-09T12:44:22.942Z,53
2024-05-09T12:45:22.942Z,53
2024-05-09T12:46:22.981Z,53
2024-05-09T12:47:23.047Z,53
2024-05-09T12:48:23.074Z,53
2024-05-09T12:49:23.088Z,53
2024-05-09T12:50:29.907Z,53
2024-05-09T12:51:23.002Z,53
2024-05-09T12:52:23.006Z,53
2024-05-09T12:53:22.937Z,53
2024-05-09T12:54:22.950Z,53
2024-05-09T12:55:23.035Z,53
2024-05-09T12:56:22.961Z,53
2024-05-09T12:57:22.947Z,53
2024-05-09T12:58:23.072Z,53
2024-05-09T12:59:23.008Z,53
2024-05-09T13:00:28.218Z,53
2024-05-09T13:01:23.047Z,53
2024-05-09T13:02:23.082Z,53
2024-05-09T13:03:23.081Z,53
2024-05-09T13:04:23.140Z,53
2024-05-09T13:05:23.144Z,53
2024-05-09T13:06:22.981Z,53
2024-05-09T13:07:22.989Z,53
2024-05-09T13:08:23.015Z,53
2024-05-09T13:09:22.986Z,55.5
2024-05-09T13:10:29.431Z,55.5
2024-05-09T13:11:23.012Z,55.8
2024-05-09T13:12:24.319Z,55.8
2024-05-09T13:13:23.015Z,55.8
2024-05-09T13:14:22.991Z,55.8
2024-05-09T13:15:22.970Z,55.8
2024-05-09T13:16:23.191Z,55.8
2024-05-09T13:17:23.152Z,55.8
2024-05-09T13:18:23.041Z,55.8
2024-05-09T13:19:23.054Z,55.8
2024-05-09T13:20:29.536Z,55.8
2024-05-09T13:21:23.012Z,55.8
2024-05-09T13:22:23.024Z,55.8
2024-05-09T13:23:23.033Z,55.8
2024-05-09T13:24:22.989Z,55.8
2024-05-09T13:25:23.003Z,55.8
2024-05-09T13:26:22.965Z,55.8
2024-05-09T13:27:22.981Z,55.8
2024-05-09T13:28:23.095Z,55.8
2024-05-09T13:29:23.011Z,55.8